createdAt,value
2023-05-24T00:00:56.939Z,11.20
2023-05-24T00:03:28.339Z,11.30
2023-05-24T00:05:58.473Z,11.30
2023-05-24T00:08:28.534Z,11.30
2023-05-24T00:10:58.997Z,11.20
2023-05-24T00:13:31.678Z,11.20
2023-05-24T00:16:01.717Z,11.10
2023-05-24T00:18:32.793Z,11.10
2023-05-24T00:21:02.893Z,11.00
2023-05-24T00:23:32.993Z,11.10
2023-05-24T00:26:03.648Z,11.10
2023-05-24T00:28:36.321Z,11.00
2023-05-24T00:31:07.045Z,10.90
2023-05-24T00:33:37.133Z,10.90
2023-05-24T00:36:07.667Z,10.90
2023-05-24T00:38:37.782Z,10.90
2023-05-24T00:41:07.930Z,10.90
2023-05-24T00:43:43.421Z,10.90
2023-05-24T00:46:22.515Z,10.90
2023-05-24T00:48:53.490Z,10.90
2023-05-24T00:51:23.865Z,10.90
2023-05-24T00:53:54.108Z,10.90
2023-05-24T00:56:24.384Z,10.90
2023-05-24T00:58:57.432Z,10.90
2023-05-24T01:01:31.504Z,10.80
2023-05-24T01:04:01.985Z,10.80
2023-05-24T01:06:33.318Z,10.90
2023-05-24T01:09:17.322Z,10.90
2023-05-24T01:12:03.153Z,10.90
2023-05-24T01:14:44.934Z,10.90
2023-05-24T01:17:24.218Z,10.80
2023-05-24T01:20:02.753Z,10.80
2023-05-24T01:22:59.371Z,10.70
2023-05-24T01:25:44.606Z,10.70
2023-05-24T01:28:19.554Z,10.70
2023-05-24T01:30:50.072Z,10.50
2023-05-24T01:33:20.909Z,10.60
2023-05-24T01:35:51.059Z,10.60
2023-05-24T01:38:21.259Z,10.60
2023-05-24T01:40:58.686Z,10.50
2023-05-24T01:43:39.799Z,10.30
2023-05-24T01:46:19.132Z,10.40
2023-05-24T01:49:01.056Z,10.30
2023-05-24T01:51:38.522Z,10.30
2023-05-24T01:54:10.805Z,10.20
2023-05-24T01:56:42.369Z,10.20
2023-05-24T01:59:16.086Z,10.00
2023-05-24T02:01:46.858Z,10.10
2023-05-24T02:04:16.988Z,10.10
2023-05-24T02:06:47.203Z,10.00
2023-05-24T02:09:17.293Z,9.90
2023-05-24T02:11:47.484Z,10.00
2023-05-24T02:14:20.745Z,10.00
2023-05-24T02:16:51.280Z,9.90
2023-05-24T02:19:21.692Z,9.90
2023-05-24T02:21:51.766Z,9.90
2023-05-24T02:24:21.950Z,9.80
2023-05-24T02:26:52.045Z,9.80
2023-05-24T02:29:25.581Z,9.80
2023-05-24T02:31:56.902Z,9.80
2023-05-24T02:34:27.720Z,9.80
2023-05-24T02:36:57.797Z,9.90
2023-05-24T02:39:27.932Z,9.80
2023-05-24T02:41:58.024Z,9.90
2023-05-24T02:44:30.684Z,9.90
2023-05-24T02:47:00.759Z,10.00
2023-05-24T02:49:30.861Z,10.00
2023-05-24T02:52:00.949Z,10.10
2023-05-24T02:54:31.063Z,10.10
2023-05-24T02:57:01.797Z,10.10
2023-05-24T02:59:34.502Z,10.20
2023-05-24T03:02:04.655Z,10.20
2023-05-24T03:04:34.823Z,10.30
2023-05-24T03:07:04.986Z,10.30
2023-05-24T03:09:35.078Z,10.30
2023-05-24T03:12:05.177Z,10.30
2023-05-24T03:14:37.886Z,10.30
2023-05-24T03:17:08.189Z,10.40
2023-05-24T03:19:38.291Z,10.40
2023-05-24T03:22:08.513Z,10.40
2023-05-24T03:24:38.730Z,10.50
2023-05-24T03:27:09.464Z,10.50
2023-05-24T03:29:42.140Z,10.40
2023-05-24T03:32:12.252Z,10.40
2023-05-24T03:34:42.336Z,10.40
2023-05-24T03:37:12.442Z,10.40
2023-05-24T03:39:42.490Z,10.40
2023-05-24T03:42:12.585Z,10.50
2023-05-24T03:44:45.261Z,10.50
2023-05-24T03:47:15.369Z,10.50
2023-05-24T03:49:45.575Z,10.50
2023-05-24T03:52:15.742Z,10.50
2023-05-24T03:54:46.148Z,10.50
2023-05-24T03:57:16.481Z,10.60
2023-05-24T03:59:49.184Z,10.60
2023-05-24T04:02:19.297Z,10.60
2023-05-24T04:04:49.393Z,10.60
2023-05-24T04:07:19.740Z,10.70
2023-05-24T04:09:49.812Z,10.70
2023-05-24T04:12:19.927Z,10.60
2023-05-24T04:14:52.620Z,10.70
2023-05-24T04:17:25.109Z,10.70
2023-05-24T04:19:55.783Z,10.70
2023-05-24T04:22:25.995Z,10.70
2023-05-24T04:24:56.125Z,10.70
2023-05-24T04:27:26.302Z,10.70
2023-05-24T04:29:59.244Z,10.70
2023-05-24T04:32:30.576Z,10.70
2023-05-24T04:35:02.485Z,10.60
2023-05-24T04:37:32.601Z,10.70
2023-05-24T04:40:04.379Z,10.70
2023-05-24T04:42:34.509Z,10.70
2023-05-24T04:45:08.010Z,10.70
2023-05-24T04:47:38.217Z,10.60
2023-05-24T04:50:09.984Z,10.70
2023-05-24T04:52:40.109Z,10.60
2023-05-24T04:55:11.716Z,10.70
2023-05-24T04:57:41.774Z,10.70
2023-05-24T05:00:16.737Z,10.80
2023-05-24T05:02:47.142Z,10.70
2023-05-24T05:05:17.348Z,10.80
2023-05-24T05:07:47.418Z,10.80
2023-05-24T05:10:17.537Z,10.80
2023-05-24T05:12:47.654Z,10.90
2023-05-24T05:15:20.509Z,10.90
2023-05-24T05:17:50.810Z,10.90
2023-05-24T05:20:21.548Z,11.00
2023-05-24T05:22:52.111Z,11.00
2023-05-24T05:25:22.372Z,11.00
2023-05-24T05:27:52.466Z,11.10
2023-05-24T05:30:25.192Z,11.10
2023-05-24T05:32:55.461Z,11.30
2023-05-24T05:35:25.625Z,11.20
2023-05-24T05:37:55.787Z,11.10
2023-05-24T05:40:25.860Z,11.10
2023-05-24T05:42:55.968Z,11.00
2023-05-24T05:45:28.779Z,11.10
2023-05-24T05:47:58.914Z,11.20
2023-05-24T05:50:29.206Z,11.30
2023-05-24T05:52:59.436Z,11.20
2023-05-24T05:55:29.570Z,11.20
2023-05-24T05:57:59.620Z,11.10
2023-05-24T06:00:32.358Z,11.20
2023-05-24T06:03:02.572Z,11.10
2023-05-24T06:05:32.701Z,11.20
2023-05-24T06:08:02.799Z,11.30
2023-05-24T06:10:32.855Z,11.30
2023-05-24T06:13:06.123Z,11.20
2023-05-24T06:15:38.830Z,11.30
2023-05-24T06:18:09.342Z,11.40
2023-05-24T06:20:39.589Z,11.50
2023-05-24T06:23:09.819Z,11.30
2023-05-24T06:25:40.679Z,11.20
2023-05-24T06:28:10.811Z,11.30
2023-05-24T06:30:43.760Z,11.30
2023-05-24T06:33:14.048Z,11.30
2023-05-24T06:35:44.135Z,11.50
2023-05-24T06:38:14.221Z,11.50
2023-05-24T06:40:44.454Z,11.40
2023-05-24T06:43:14.765Z,11.70
2023-05-24T06:45:47.484Z,11.70
2023-05-24T06:48:17.775Z,11.90
2023-05-24T06:50:48.203Z,12.00
2023-05-24T06:53:20.144Z,11.90
2023-05-24T06:55:50.248Z,11.70
2023-05-24T06:58:20.356Z,11.60
2023-05-24T07:00:53.390Z,11.60
2023-05-24T07:03:23.714Z,11.50
2023-05-24T07:05:53.778Z,11.50
2023-05-24T07:08:23.851Z,11.50
2023-05-24T07:10:54.182Z,11.60
2023-05-24T07:13:24.601Z,12.00
2023-05-24T07:15:57.317Z,12.20
2023-05-24T07:18:27.423Z,12.00
2023-05-24T07:20:57.786Z,12.00
2023-05-24T07:23:27.838Z,12.10
2023-05-24T07:25:57.938Z,12.40
2023-05-24T07:28:28.045Z,12.30
2023-05-24T07:31:00.692Z,12.20
2023-05-24T07:33:31.038Z,12.40
2023-05-24T07:36:01.447Z,12.50
2023-05-24T07:38:32.136Z,12.30
2023-05-24T07:41:04.953Z,12.10
2023-05-24T07:43:35.112Z,11.90
2023-05-24T07:46:08.403Z,12.00
2023-05-24T07:48:38.531Z,12.00
2023-05-24T07:51:08.724Z,12.40
2023-05-24T07:53:40.374Z,12.50
2023-05-24T07:56:11.310Z,12.50
2023-05-24T07:58:43.205Z,12.40
2023-05-24T08:01:16.131Z,12.30
2023-05-24T08:03:46.353Z,12.30
2023-05-24T08:06:16.871Z,12.30
2023-05-24T08:08:47.963Z,12.40
2023-05-24T08:11:18.040Z,12.40
2023-05-24T08:13:48.229Z,12.40
2023-05-24T08:16:22.147Z,12.30
2023-05-24T08:18:54.774Z,12.20
2023-05-24T08:21:25.456Z,12.20
2023-05-24T08:23:55.739Z,12.30
2023-05-24T08:26:26.184Z,12.30
2023-05-24T08:28:56.557Z,12.50
2023-05-24T08:31:29.456Z,12.40
2023-05-24T08:34:00.046Z,12.30
2023-05-24T08:36:30.360Z,12.30
2023-05-24T08:39:00.942Z,12.40
2023-05-24T08:41:33.350Z,12.40
2023-05-24T08:44:04.680Z,12.40
2023-05-24T08:46:39.099Z,12.30
2023-05-24T08:49:12.787Z,12.20
2023-05-24T08:51:43.894Z,12.20
2023-05-24T08:54:15.168Z,12.30
2023-05-24T08:56:45.564Z,12.40
2023-05-24T08:59:18.243Z,12.60
2023-05-24T09:01:56.934Z,12.60
2023-05-24T09:04:27.921Z,12.40
2023-05-24T09:06:59.755Z,12.30
2023-05-24T09:09:31.811Z,12.50
2023-05-24T09:12:08.863Z,12.60
2023-05-24T09:14:39.202Z,12.60
2023-05-24T09:17:13.184Z,12.60
2023-05-24T09:19:43.899Z,12.60
2023-05-24T09:22:16.496Z,12.40
2023-05-24T09:24:47.588Z,12.40
2023-05-24T09:27:21.641Z,12.40
2023-05-24T09:29:53.539Z,12.50
2023-05-24T09:32:27.038Z,12.60
2023-05-24T09:35:00.382Z,12.50
2023-05-24T09:37:32.968Z,12.70
2023-05-24T09:40:07.340Z,13.00
2023-05-24T09:42:38.360Z,12.90
2023-05-24T09:45:12.313Z,12.90
2023-05-24T09:47:46.458Z,13.10
2023-05-24T09:50:18.558Z,13.10
2023-05-24T09:52:49.202Z,13.10
2023-05-24T09:55:22.661Z,13.30
2023-05-24T09:57:55.786Z,13.20
2023-05-24T10:00:26.989Z,13.20
2023-05-24T10:03:11.294Z,12.90
2023-05-24T10:05:44.815Z,12.70
2023-05-24T10:08:15.746Z,12.70
2023-05-24T10:10:46.841Z,12.80
2023-05-24T10:13:18.488Z,12.80
2023-05-24T10:15:48.709Z,12.80
2023-05-24T10:18:21.866Z,13.00
2023-05-24T10:20:54.174Z,13.00
2023-05-24T10:23:25.343Z,13.00
2023-05-24T10:26:03.970Z,12.90
2023-05-24T10:28:34.855Z,12.90
2023-05-24T10:31:12.518Z,13.00
2023-05-24T10:33:48.805Z,13.10
2023-05-24T10:36:19.637Z,13.20
2023-05-24T10:38:50.484Z,13.30
2023-05-24T10:41:22.558Z,13.60
2023-05-24T10:44:08.520Z,13.40
2023-05-24T10:46:39.310Z,13.40
2023-05-24T10:49:16.637Z,13.70
2023-05-24T10:51:47.133Z,13.80
2023-05-24T10:54:20.084Z,14.00
2023-05-24T10:56:53.720Z,13.80
2023-05-24T10:59:44.677Z,13.50
2023-05-24T11:02:16.876Z,13.50
2023-05-24T11:04:50.760Z,13.70
2023-05-24T11:07:22.832Z,13.90
2023-05-24T11:09:58.424Z,14.00
2023-05-24T11:12:39.068Z,13.80
2023-05-24T11:15:13.615Z,13.70
2023-05-24T11:18:17.596Z,13.70
2023-05-24T11:20:51.930Z,13.80
2023-05-24T11:23:23.230Z,13.70
2023-05-24T11:25:53.696Z,13.80
2023-05-24T11:28:24.938Z,13.70
2023-05-24T11:30:55.211Z,13.70
2023-05-24T11:33:27.388Z,14.10
2023-05-24T11:36:00.244Z,14.30
2023-05-24T11:38:30.573Z,14.70
2023-05-24T11:41:01.914Z,15.00
2023-05-24T11:43:34.227Z,15.10
2023-05-24T11:46:04.695Z,14.90
2023-05-24T11:48:35.224Z,15.20
2023-05-24T11:51:08.476Z,15.10
2023-05-24T11:53:38.705Z,15.10
2023-05-24T11:56:09.531Z,15.00
2023-05-24T11:58:50.146Z,14.80
2023-05-24T12:01:28.512Z,14.60
2023-05-24T12:03:58.881Z,14.70
2023-05-24T12:06:38.838Z,14.80
2023-05-24T12:09:13.718Z,15.00
2023-05-24T12:11:45.257Z,14.90
2023-05-24T12:14:17.009Z,14.70
2023-05-24T12:16:49.624Z,14.70
2023-05-24T12:19:33.225Z,14.80
2023-05-24T12:22:09.321Z,14.80
2023-05-24T12:24:42.544Z,14.70
2023-05-24T12:27:14.360Z,14.70
2023-05-24T12:29:44.787Z,14.70
2023-05-24T12:32:15.723Z,14.80
2023-05-24T12:34:47.243Z,15.00
2023-05-24T12:37:21.773Z,15.20
2023-05-24T12:39:53.092Z,15.30
2023-05-24T12:42:24.879Z,15.30
2023-05-24T12:44:55.411Z,15.40
2023-05-24T12:47:25.974Z,14.90
2023-05-24T12:49:56.858Z,14.70
2023-05-24T12:52:29.712Z,14.70
2023-05-24T12:54:59.904Z,15.10
2023-05-24T12:57:31.315Z,15.20
2023-05-24T13:00:01.792Z,15.60
2023-05-24T13:02:32.177Z,15.50
2023-05-24T13:05:02.465Z,15.30
2023-05-24T13:07:36.267Z,15.30
2023-05-24T13:10:07.171Z,15.30
2023-05-24T13:12:37.404Z,15.40
2023-05-24T13:15:09.523Z,15.60
2023-05-24T13:17:39.798Z,15.80
2023-05-24T13:20:12.156Z,15.70
2023-05-24T13:22:45.407Z,15.80
2023-05-24T13:25:15.888Z,16.10
2023-05-24T13:27:46.065Z,15.80
2023-05-24T13:30:17.664Z,15.90
2023-05-24T13:32:47.856Z,15.80
2023-05-24T13:35:18.616Z,15.70
2023-05-24T13:37:52.902Z,16.10
2023-05-24T13:40:25.230Z,16.10
2023-05-24T13:42:55.850Z,15.80
2023-05-24T13:45:26.126Z,15.90
2023-05-24T13:48:03.800Z,16.10
2023-05-24T13:50:34.131Z,16.10
2023-05-24T13:53:08.155Z,15.90
2023-05-24T13:55:39.694Z,15.90
2023-05-24T13:58:09.861Z,15.80
2023-05-24T14:00:39.986Z,16.10
2023-05-24T14:03:10.361Z,16.60
2023-05-24T14:05:40.615Z,16.40
2023-05-24T14:08:13.364Z,16.10
2023-05-24T14:10:43.516Z,16.00
2023-05-24T14:13:36.759Z,15.90
2023-05-24T14:16:03.843Z,15.80
2023-05-24T14:18:34.055Z,15.90
2023-05-24T14:21:04.261Z,16.00
2023-05-24T14:23:37.104Z,16.00
2023-05-24T14:26:07.264Z,16.00
2023-05-24T14:28:37.481Z,16.00
2023-05-24T14:31:07.669Z,15.90
2023-05-24T14:33:38.109Z,15.70
2023-05-24T14:36:09.418Z,15.70
2023-05-24T14:38:42.219Z,15.60
2023-05-24T14:41:12.361Z,15.70
2023-05-24T14:43:43.001Z,15.70
2023-05-24T14:46:13.178Z,15.60
2023-05-24T14:48:43.541Z,15.60
2023-05-24T14:51:13.619Z,15.90
2023-05-24T14:53:46.272Z,16.00
2023-05-24T14:56:16.640Z,16.50
2023-05-24T14:58:46.700Z,16.60
2023-05-24T15:01:17.108Z,16.50
2023-05-24T15:03:47.406Z,16.50
2023-05-24T15:06:17.882Z,16.60
2023-05-24T15:08:52.109Z,17.00
2023-05-24T15:11:23.152Z,17.00
2023-05-24T15:13:55.696Z,16.80
2023-05-24T15:16:25.893Z,17.00
2023-05-24T15:18:56.205Z,17.00
2023-05-24T15:21:26.299Z,17.20
2023-05-24T15:23:58.977Z,17.20
2023-05-24T15:26:29.551Z,17.20
2023-05-24T15:29:01.287Z,17.30
2023-05-24T15:31:31.457Z,17.50
2023-05-24T15:34:01.638Z,17.20
2023-05-24T15:36:32.706Z,17.10
2023-05-24T15:39:06.103Z,16.90
2023-05-24T15:41:37.703Z,16.70
2023-05-24T15:44:09.366Z,16.50
2023-05-24T15:46:39.713Z,16.60
2023-05-24T15:49:10.136Z,16.70
2023-05-24T15:54:16.062Z,16.70
2023-05-24T15:56:46.950Z,16.80
2023-05-24T15:59:18.103Z,17.00
2023-05-24T16:01:50.064Z,17.10
2023-05-24T16:04:20.521Z,17.00
2023-05-24T16:06:50.730Z,16.90
2023-05-24T16:09:23.486Z,16.70
2023-05-24T16:11:53.936Z,16.60
2023-05-24T16:14:24.095Z,16.60
2023-05-24T16:16:55.486Z,16.70
2023-05-24T16:19:27.432Z,16.60
2023-05-24T16:21:57.671Z,16.60
2023-05-24T16:24:30.598Z,16.60
2023-05-24T16:27:01.884Z,16.60
2023-05-24T16:29:32.017Z,16.50
2023-05-24T16:32:02.162Z,16.50
2023-05-24T16:34:38.890Z,16.50
2023-05-24T16:37:15.156Z,16.30
2023-05-24T16:39:47.891Z,16.30
2023-05-24T16:42:18.133Z,16.20
2023-05-24T16:44:48.281Z,16.20
2023-05-24T16:47:18.778Z,16.10
2023-05-24T16:49:48.968Z,16.10
2023-05-24T16:52:19.178Z,16.20
2023-05-24T16:54:51.965Z,16.40
2023-05-24T16:57:22.115Z,16.40
2023-05-24T16:59:52.307Z,16.40
2023-05-24T17:02:22.483Z,16.40
2023-05-24T17:04:52.698Z,16.20
2023-05-24T17:07:22.972Z,16.20
2023-05-24T17:09:55.827Z,16.20
2023-05-24T17:12:26.956Z,16.20
2023-05-24T17:14:57.024Z,16.30
2023-05-24T17:17:27.116Z,16.30
2023-05-24T17:19:57.250Z,16.30
2023-05-24T17:22:27.332Z,16.30
2023-05-24T17:25:00.001Z,16.20
2023-05-24T17:27:30.155Z,16.20
2023-05-24T17:30:00.201Z,16.20
2023-05-24T17:32:30.298Z,16.20
2023-05-24T17:35:00.444Z,16.10
2023-05-24T17:37:30.666Z,16.10
2023-05-24T17:40:03.424Z,16.00
2023-05-24T17:42:33.526Z,15.90
2023-05-24T17:45:03.594Z,15.80
2023-05-24T17:47:33.724Z,15.70
2023-05-24T17:50:03.806Z,15.70
2023-05-24T17:52:33.886Z,15.70
2023-05-24T17:55:07.474Z,15.70
2023-05-24T17:57:37.611Z,15.60
2023-05-24T18:00:10.051Z,15.60
2023-05-24T18:02:40.182Z,15.60
2023-05-24T18:05:12.392Z,15.50
2023-05-24T18:07:42.572Z,15.50
2023-05-24T18:10:15.592Z,15.40
2023-05-24T18:12:45.630Z,15.50
2023-05-24T18:15:15.833Z,15.40
2023-05-24T18:17:45.965Z,15.40
2023-05-24T18:20:16.744Z,15.30
2023-05-24T18:22:47.466Z,15.30
2023-05-24T18:25:20.402Z,15.30
2023-05-24T18:27:50.771Z,15.20
2023-05-24T18:30:20.953Z,15.20
2023-05-24T18:33:04.476Z,15.10
2023-05-24T18:35:37.493Z,15.10
2023-05-24T18:38:07.881Z,15.00
2023-05-24T18:40:40.873Z,14.90
2023-05-24T18:43:10.925Z,14.90
2023-05-24T18:45:41.281Z,14.90
2023-05-24T18:48:11.670Z,14.80
2023-05-24T18:50:41.778Z,14.80
2023-05-24T18:53:12.271Z,14.70
2023-05-24T18:55:45.278Z,14.70
2023-05-24T18:58:15.488Z,14.60
2023-05-24T19:00:45.653Z,14.60
2023-05-24T19:03:16.133Z,14.60
2023-05-24T19:05:46.431Z,14.60
2023-05-24T19:08:16.761Z,14.40
2023-05-24T19:10:49.495Z,14.40
2023-05-24T19:13:19.633Z,14.40
2023-05-24T19:15:49.709Z,14.30
2023-05-24T19:18:19.827Z,14.20
2023-05-24T19:20:49.904Z,14.20
2023-05-24T19:23:20.033Z,14.30
2023-05-24T19:25:52.973Z,14.10
2023-05-24T19:28:24.319Z,14.10
2023-05-24T19:30:54.714Z,14.10
2023-05-24T19:33:24.816Z,14.00
2023-05-24T19:35:54.900Z,13.80
2023-05-24T19:38:26.077Z,13.80
2023-05-24T19:40:59.154Z,13.80
2023-05-24T19:43:29.278Z,13.70
2023-05-24T19:45:59.368Z,13.60
2023-05-24T19:48:29.472Z,13.60
2023-05-24T19:51:00.061Z,13.60
2023-05-24T19:53:31.053Z,13.70
2023-05-24T19:56:03.761Z,13.60
2023-05-24T19:58:33.890Z,13.50
2023-05-24T20:01:03.964Z,13.50
2023-05-24T20:03:34.327Z,13.50
2023-05-24T20:06:04.467Z,13.50
2023-05-24T20:08:34.533Z,13.50
2023-05-24T20:11:07.331Z,13.40
2023-05-24T20:13:37.451Z,13.30
2023-05-24T20:16:07.945Z,13.30
2023-05-24T20:18:38.061Z,13.30
2023-05-24T20:21:08.207Z,13.30
2023-05-24T20:23:38.303Z,13.30
2023-05-24T20:26:11.227Z,13.30
2023-05-24T20:28:41.354Z,13.20
2023-05-24T20:31:11.514Z,13.00
2023-05-24T20:33:42.141Z,12.90
2023-05-24T20:36:12.292Z,12.90
2023-05-24T20:38:42.372Z,12.80
2023-05-24T20:41:15.154Z,12.80
2023-05-24T20:43:45.354Z,12.70
2023-05-24T20:46:16.710Z,12.70
2023-05-24T20:48:46.882Z,12.60
2023-05-24T20:51:17.030Z,12.60
2023-05-24T20:53:49.212Z,12.50
2023-05-24T20:56:23.829Z,12.50
2023-05-24T20:58:54.909Z,12.40
2023-05-24T21:01:25.230Z,12.30
2023-05-24T21:03:56.757Z,12.40
2023-05-24T21:06:27.508Z,12.20
2023-05-24T21:08:59.115Z,12.20
2023-05-24T21:11:32.724Z,12.20
2023-05-24T21:14:02.872Z,12.10
2023-05-24T21:16:33.429Z,12.20
2023-05-24T21:19:03.617Z,12.00
2023-05-24T21:21:33.765Z,11.80
2023-05-24T21:24:03.836Z,11.80
2023-05-24T21:26:36.524Z,11.80
2023-05-24T21:29:06.624Z,11.70
2023-05-24T21:31:36.818Z,11.60
2023-05-24T21:34:07.076Z,11.60
2023-05-24T21:36:37.803Z,11.50
2023-05-24T21:39:08.618Z,11.50
2023-05-24T21:41:41.673Z,11.50
2023-05-24T21:44:11.906Z,11.40
2023-05-24T21:46:42.043Z,11.40
2023-05-24T21:49:12.235Z,11.40
2023-05-24T21:51:42.370Z,11.30
2023-05-24T21:54:12.492Z,11.10
2023-05-24T21:56:45.210Z,11.10
2023-05-24T21:59:15.418Z,11.10
2023-05-24T22:01:45.736Z,11.10
2023-05-24T22:04:15.972Z,11.20
2023-05-24T22:06:46.282Z,11.10
2023-05-24T22:09:16.450Z,11.10
2023-05-24T22:11:49.123Z,11.00
2023-05-24T22:14:19.319Z,10.90
2023-05-24T22:16:49.632Z,11.00
2023-05-24T22:19:28.350Z,10.90
2023-05-24T22:22:03.341Z,10.70
2023-05-24T22:24:33.481Z,10.80
2023-05-24T22:27:09.803Z,10.80
2023-05-24T22:29:39.948Z,10.80
2023-05-24T22:32:10.049Z,10.70
2023-05-24T22:34:40.199Z,10.80
2023-05-24T22:37:10.981Z,10.80
2023-05-24T22:39:41.113Z,10.60
2023-05-24T22:42:13.832Z,10.50
2023-05-24T22:44:43.900Z,10.60
2023-05-24T22:47:17.116Z,10.50
2023-05-24T22:49:47.458Z,10.50
2023-05-24T22:52:17.993Z,10.40
2023-05-24T22:54:48.261Z,10.30
2023-05-24T22:57:23.010Z,10.40
2023-05-24T22:59:53.318Z,10.30
2023-05-24T23:02:23.743Z,10.30
2023-05-24T23:04:54.025Z,10.30
2023-05-24T23:07:25.286Z,10.30
2023-05-24T23:09:55.440Z,10.30
2023-05-24T23:12:28.221Z,10.30
2023-05-24T23:15:01.116Z,10.30
2023-05-24T23:17:31.234Z,10.30
2023-05-24T23:20:01.426Z,10.30
2023-05-24T23:22:31.762Z,10.10
2023-05-24T23:25:02.690Z,10.10
2023-05-24T23:27:35.390Z,10.00
2023-05-24T23:30:05.663Z,10.00
2023-05-24T23:32:36.002Z,10.00
2023-05-24T23:35:06.274Z,10.10
2023-05-24T23:37:36.365Z,10.10
2023-05-24T23:40:07.458Z,10.00
2023-05-24T23:42:40.183Z,9.90
2023-05-24T23:45:11.358Z,10.00
2023-05-24T23:47:41.442Z,9.90
2023-05-24T23:50:17.401Z,10.00
2023-05-24T23:52:48.581Z,10.00
2023-05-24T23:55:19.007Z,10.10
2023-05-24T23:57:52.316Z,10.20
